sensor_id;sensor_type;location;lat;lon;timestamp;P1;durP1;ratioP1;P2;durP2;ratioP2
1360;SDS011;674;45.552;-122.600;2023-07-13T00:01:14;3.43;;;3.13;;
1360;SDS011;674;45.552;-122.600;2023-07-13T00:03:43;4.67;;;4.20;;
1360;SDS011;674;45.552;-122.600;2023-07-13T00:06:12;5.37;;;3.27;;
1360;SDS011;674;45.552;-122.600;2023-07-13T00:08:41;3.60;;;3.30;;
1360;SDS011;674;45.552;-122.600;2023-07-13T00:11:09;4.33;;;3.40;;
1360;SDS011;674;45.552;-122.600;2023-07-13T00:13:38;6.33;;;3.37;;
1360;SDS011;674;45.552;-122.600;2023-07-13T00:16:08;3.37;;;3.03;;
1360;SDS011;674;45.552;-122.600;2023-07-13T00:18:38;6.67;;;3.60;;
1360;SDS011;674;45.552;-122.600;2023-07-13T00:21:07;3.40;;;2.60;;
1360;SDS011;674;45.552;-122.600;2023-07-13T00:23:37;3.23;;;2.93;;
1360;SDS011;674;45.552;-122.600;2023-07-13T00:26:08;3.30;;;3.00;;
1360;SDS011;674;45.552;-122.600;2023-07-13T00:28:39;3.30;;;3.00;;
1360;SDS011;674;45.552;-122.600;2023-07-13T00:31:10;3.20;;;3.00;;
1360;SDS011;674;45.552;-122.600;2023-07-13T00:33:40;4.17;;;3.27;;
1360;SDS011;674;45.552;-122.600;2023-07-13T00:36:09;3.50;;;3.00;;
1360;SDS011;674;45.552;-122.600;2023-07-13T00:38:39;3.70;;;3.27;;
1360;SDS011;674;45.552;-122.600;2023-07-13T00:41:07;5.93;;;2.93;;
1360;SDS011;674;45.552;-122.600;2023-07-13T00:43:36;3.23;;;2.77;;
1360;SDS011;674;45.552;-122.600;2023-07-13T00:46:47;3.00;;;2.70;;
1360;SDS011;674;45.552;-122.600;2023-07-13T00:49:02;3.80;;;3.03;;
1360;SDS011;674;45.552;-122.600;2023-07-13T00:51:37;3.83;;;2.70;;
1360;SDS011;674;45.552;-122.600;2023-07-13T00:54:11;3.27;;;2.73;;
1360;SDS011;674;45.552;-122.600;2023-07-13T00:56:43;4.43;;;2.63;;
1360;SDS011;674;45.552;-122.600;2023-07-13T00:59:14;2.57;;;2.37;;
1360;SDS011;674;45.552;-122.600;2023-07-13T01:01:46;3.27;;;2.80;;
1360;SDS011;674;45.552;-122.600;2023-07-13T01:04:15;3.50;;;2.63;;
1360;SDS011;674;45.552;-122.600;2023-07-13T01:06:44;6.57;;;2.47;;
1360;SDS011;674;45.552;-122.600;2023-07-13T01:09:14;4.10;;;3.00;;
1360;SDS011;674;45.552;-122.600;2023-07-13T01:11:43;3.17;;;2.87;;
1360;SDS011;674;45.552;-122.600;2023-07-13T01:14:12;3.10;;;2.83;;
1360;SDS011;674;45.552;-122.600;2023-07-13T01:16:41;3.23;;;2.83;;
1360;SDS011;674;45.552;-122.600;2023-07-13T01:19:17;2.73;;;2.50;;
1360;SDS011;674;45.552;-122.600;2023-07-13T01:22:04;3.20;;;2.70;;
1360;SDS011;674;45.552;-122.600;2023-07-13T01:24:36;2.50;;;2.30;;
1360;SDS011;674;45.552;-122.600;2023-07-13T01:27:06;2.80;;;2.60;;
1360;SDS011;674;45.552;-122.600;2023-07-13T01:29:35;4.43;;;2.77;;
1360;SDS011;674;45.552;-122.600;2023-07-13T01:32:12;3.17;;;2.57;;
1360;SDS011;674;45.552;-122.600;2023-07-13T01:34:43;3.17;;;2.40;;
1360;SDS011;674;45.552;-122.600;2023-07-13T01:37:12;4.17;;;2.50;;
1360;SDS011;674;45.552;-122.600;2023-07-13T01:39:40;3.17;;;2.80;;
1360;SDS011;674;45.552;-122.600;2023-07-13T01:42:09;2.70;;;2.50;;
1360;SDS011;674;45.552;-122.600;2023-07-13T01:44:37;3.10;;;2.40;;
1360;SDS011;674;45.552;-122.600;2023-07-13T01:47:06;2.70;;;2.50;;
1360;SDS011;674;45.552;-122.600;2023-07-13T01:49:35;4.30;;;2.80;;
1360;SDS011;674;45.552;-122.600;2023-07-13T01:52:05;3.93;;;2.23;;
1360;SDS011;674;45.552;-122.600;2023-07-13T01:54:33;2.87;;;2.23;;
1360;SDS011;674;45.552;-122.600;2023-07-13T01:57:02;4.80;;;2.30;;
1360;SDS011;674;45.552;-122.600;2023-07-13T01:59:31;2.67;;;2.47;;
1360;SDS011;674;45.552;-122.600;2023-07-13T02:02:00;2.50;;;2.13;;
1360;SDS011;674;45.552;-122.600;2023-07-13T02:04:29;3.33;;;2.30;;
1360;SDS011;674;45.552;-122.600;2023-07-13T02:06:58;3.90;;;1.97;;
1360;SDS011;674;45.552;-122.600;2023-07-13T02:09:26;2.63;;;2.23;;
1360;SDS011;674;45.552;-122.600;2023-07-13T02:11:55;2.50;;;2.20;;
1360;SDS011;674;45.552;-122.600;2023-07-13T02:14:23;3.20;;;2.03;;
1360;SDS011;674;45.552;-122.600;2023-07-13T02:16:52;2.20;;;2.00;;
1360;SDS011;674;45.552;-122.600;2023-07-13T02:19:20;2.90;;;2.27;;
1360;SDS011;674;45.552;-122.600;2023-07-13T02:21:49;3.40;;;2.20;;
1360;SDS011;674;45.552;-122.600;2023-07-13T02:24:17;2.67;;;2.20;;
1360;SDS011;674;45.552;-122.600;2023-07-13T02:26:48;2.73;;;2.10;;
1360;SDS011;674;45.552;-122.600;2023-07-13T02:29:16;2.50;;;2.07;;
1360;SDS011;674;45.552;-122.600;2023-07-13T02:31:45;2.20;;;2.00;;
1360;SDS011;674;45.552;-122.600;2023-07-13T02:34:13;2.20;;;2.00;;
1360;SDS011;674;45.552;-122.600;2023-07-13T02:36:42;2.30;;;2.10;;
1360;SDS011;674;45.552;-122.600;2023-07-13T02:39:11;5.33;;;2.20;;
1360;SDS011;674;45.552;-122.600;2023-07-13T02:41:41;2.80;;;2.50;;
1360;SDS011;674;45.552;-122.600;2023-07-13T02:44:09;4.13;;;2.27;;
1360;SDS011;674;45.552;-122.600;2023-07-13T02:46:41;3.30;;;2.40;;
1360;SDS011;674;45.552;-122.600;2023-07-13T02:49:09;2.37;;;2.17;;
1360;SDS011;674;45.552;-122.600;2023-07-13T02:51:38;2.33;;;2.13;;
1360;SDS011;674;45.552;-122.600;2023-07-13T02:54:06;4.37;;;2.20;;
1360;SDS011;674;45.552;-122.600;2023-07-13T02:56:36;3.20;;;2.03;;
1360;SDS011;674;45.552;-122.600;2023-07-13T02:59:06;6.60;;;2.20;;
1360;SDS011;674;45.552;-122.600;2023-07-13T03:01:34;2.63;;;2.03;;
1360;SDS011;674;45.552;-122.600;2023-07-13T03:04:03;2.20;;;1.97;;
1360;SDS011;674;45.552;-122.600;2023-07-13T03:06:32;2.90;;;2.20;;
1360;SDS011;674;45.552;-122.600;2023-07-13T03:09:01;2.00;;;1.80;;
1360;SDS011;674;45.552;-122.600;2023-07-13T03:11:31;2.97;;;2.00;;
1360;SDS011;674;45.552;-122.600;2023-07-13T03:13:59;2.70;;;1.73;;
1360;SDS011;674;45.552;-122.600;2023-07-13T03:16:28;2.07;;;1.90;;
1360;SDS011;674;45.552;-122.600;2023-07-13T03:18:57;2.37;;;1.70;;
1360;SDS011;674;45.552;-122.600;2023-07-13T03:21:25;2.30;;;2.10;;
1360;SDS011;674;45.552;-122.600;2023-07-13T03:23:54;1.80;;;1.50;;
1360;SDS011;674;45.552;-122.600;2023-07-13T03:26:22;2.30;;;2.10;;
1360;SDS011;674;45.552;-122.600;2023-07-13T03:28:51;2.77;;;1.97;;
1360;SDS011;674;45.552;-122.600;2023-07-13T03:31:21;3.40;;;1.87;;
1360;SDS011;674;45.552;-122.600;2023-07-13T03:33:52;1.87;;;1.53;;
1360;SDS011;674;45.552;-122.600;2023-07-13T03:36:25;2.60;;;1.80;;
1360;SDS011;674;45.552;-122.600;2023-07-13T03:38:58;1.43;;;1.30;;
1360;SDS011;674;45.552;-122.600;2023-07-13T03:41:28;2.20;;;2.00;;
1360;SDS011;674;45.552;-122.600;2023-07-13T03:43:59;3.10;;;1.70;;
1360;SDS011;674;45.552;-122.600;2023-07-13T03:46:27;1.40;;;1.30;;
1360;SDS011;674;45.552;-122.600;2023-07-13T03:48:56;2.37;;;1.40;;
1360;SDS011;674;45.552;-122.600;2023-07-13T03:51:24;1.50;;;1.40;;
1360;SDS011;674;45.552;-122.600;2023-07-13T03:53:53;1.80;;;1.50;;
1360;SDS011;674;45.552;-122.600;2023-07-13T03:56:22;3.30;;;1.90;;
1360;SDS011;674;45.552;-122.600;2023-07-13T03:58:51;2.50;;;1.73;;
1360;SDS011;674;45.552;-122.600;2023-07-13T04:01:20;1.97;;;1.73;;
1360;SDS011;674;45.552;-122.600;2023-07-13T04:03:50;2.77;;;1.43;;
1360;SDS011;674;45.552;-122.600;2023-07-13T04:06:32;2.27;;;1.67;;
1360;SDS011;674;45.552;-122.600;2023-07-13T04:09:02;2.10;;;1.90;;
1360;SDS011;674;45.552;-122.600;2023-07-13T04:11:34;2.07;;;1.77;;
1360;SDS011;674;45.552;-122.600;2023-07-13T04:14:03;6.60;;;1.80;;
1360;SDS011;674;45.552;-122.600;2023-07-13T04:16:32;1.53;;;1.43;;
1360;SDS011;674;45.552;-122.600;2023-07-13T04:19:01;1.90;;;1.57;;
1360;SDS011;674;45.552;-122.600;2023-07-13T04:21:30;1.90;;;1.43;;
1360;SDS011;674;45.552;-122.600;2023-07-13T04:23:59;2.30;;;1.70;;
1360;SDS011;674;45.552;-122.600;2023-07-13T04:26:28;2.07;;;1.87;;
1360;SDS011;674;45.552;-122.600;2023-07-13T04:28:57;2.23;;;1.97;;
1360;SDS011;674;45.552;-122.600;2023-07-13T04:31:26;1.87;;;1.63;;
1360;SDS011;674;45.552;-122.600;2023-07-13T04:33:55;1.80;;;1.70;;
1360;SDS011;674;45.552;-122.600;2023-07-13T04:36:25;3.53;;;1.90;;
1360;SDS011;674;45.552;-122.600;2023-07-13T04:38:56;2.50;;;1.60;;
1360;SDS011;674;45.552;-122.600;2023-07-13T04:41:25;2.13;;;1.47;;
1360;SDS011;674;45.552;-122.600;2023-07-13T04:43:53;2.83;;;1.70;;
1360;SDS011;674;45.552;-122.600;2023-07-13T04:46:22;3.03;;;1.73;;
1360;SDS011;674;45.552;-122.600;2023-07-13T04:48:51;1.90;;;1.67;;
1360;SDS011;674;45.552;-122.600;2023-07-13T04:51:21;2.80;;;1.93;;
1360;SDS011;674;45.552;-122.600;2023-07-13T04:53:49;3.10;;;2.30;;
1360;SDS011;674;45.552;-122.600;2023-07-13T04:56:25;2.40;;;1.93;;
1360;SDS011;674;45.552;-122.600;2023-07-13T04:58:53;2.87;;;1.90;;
1360;SDS011;674;45.552;-122.600;2023-07-13T05:01:22;1.63;;;1.50;;
1360;SDS011;674;45.552;-122.600;2023-07-13T05:03:51;2.23;;;2.03;;
1360;SDS011;674;45.552;-122.600;2023-07-13T05:06:19;2.67;;;2.00;;
1360;SDS011;674;45.552;-122.600;2023-07-13T05:08:48;2.37;;;1.90;;
1360;SDS011;674;45.552;-122.600;2023-07-13T05:11:17;2.83;;;2.10;;
1360;SDS011;674;45.552;-122.600;2023-07-13T05:13:46;3.77;;;1.67;;
1360;SDS011;674;45.552;-122.600;2023-07-13T05:16:14;2.17;;;1.97;;
1360;SDS011;674;45.552;-122.600;2023-07-13T05:18:43;2.40;;;1.67;;
1360;SDS011;674;45.552;-122.600;2023-07-13T05:21:12;2.33;;;2.10;;
1360;SDS011;674;45.552;-122.600;2023-07-13T05:23:41;2.30;;;2.10;;
1360;SDS011;674;45.552;-122.600;2023-07-13T05:26:09;2.13;;;1.70;;
1360;SDS011;674;45.552;-122.600;2023-07-13T05:28:38;2.90;;;1.77;;
1360;SDS011;674;45.552;-122.600;2023-07-13T05:31:08;2.03;;;1.77;;
1360;SDS011;674;45.552;-122.600;2023-07-13T05:33:38;2.30;;;1.90;;
1360;SDS011;674;45.552;-122.600;2023-07-13T05:36:07;2.00;;;1.80;;
1360;SDS011;674;45.552;-122.600;2023-07-13T05:38:36;1.80;;;1.70;;
1360;SDS011;674;45.552;-122.600;2023-07-13T05:41:04;2.40;;;1.80;;
1360;SDS011;674;45.552;-122.600;2023-07-13T05:43:33;1.80;;;1.67;;
1360;SDS011;674;45.552;-122.600;2023-07-13T05:46:02;2.23;;;1.80;;
1360;SDS011;674;45.552;-122.600;2023-07-13T05:48:31;1.70;;;1.60;;
1360;SDS011;674;45.552;-122.600;2023-07-13T05:51:00;2.07;;;1.60;;
1360;SDS011;674;45.552;-122.600;2023-07-13T05:53:32;2.17;;;1.90;;
1360;SDS011;674;45.552;-122.600;2023-07-13T05:56:02;4.90;;;1.83;;
1360;SDS011;674;45.552;-122.600;2023-07-13T05:58:30;2.20;;;1.60;;
1360;SDS011;674;45.552;-122.600;2023-07-13T06:01:03;2.80;;;1.90;;
1360;SDS011;674;45.552;-122.600;2023-07-13T06:03:33;1.87;;;1.57;;
1360;SDS011;674;45.552;-122.600;2023-07-13T06:06:02;2.20;;;1.80;;
1360;SDS011;674;45.552;-122.600;2023-07-13T06:08:32;2.40;;;1.90;;
1360;SDS011;674;45.552;-122.600;2023-07-13T06:11:05;2.40;;;1.97;;
1360;SDS011;674;45.552;-122.600;2023-07-13T06:13:36;2.87;;;2.07;;
1360;SDS011;674;45.552;-122.600;2023-07-13T06:16:05;1.93;;;1.73;;
1360;SDS011;674;45.552;-122.600;2023-07-13T06:18:34;2.20;;;2.00;;
1360;SDS011;674;45.552;-122.600;2023-07-13T06:21:12;5.23;;;2.27;;
1360;SDS011;674;45.552;-122.600;2023-07-13T06:23:41;2.30;;;2.10;;
1360;SDS011;674;45.552;-122.600;2023-07-13T06:26:11;3.10;;;2.20;;
1360;SDS011;674;45.552;-122.600;2023-07-13T06:28:40;2.47;;;1.70;;
1360;SDS011;674;45.552;-122.600;2023-07-13T06:31:10;2.60;;;2.00;;
1360;SDS011;674;45.552;-122.600;2023-07-13T06:33:40;2.97;;;2.13;;
1360;SDS011;674;45.552;-122.600;2023-07-13T06:36:09;2.33;;;2.10;;
1360;SDS011;674;45.552;-122.600;2023-07-13T06:38:38;2.60;;;2.20;;
1360;SDS011;674;45.552;-122.600;2023-07-13T06:41:07;2.80;;;2.37;;
1360;SDS011;674;45.552;-122.600;2023-07-13T06:43:37;2.67;;;2.47;;
1360;SDS011;674;45.552;-122.600;2023-07-13T06:46:07;2.20;;;2.00;;
1360;SDS011;674;45.552;-122.600;2023-07-13T06:48:37;2.00;;;1.80;;
1360;SDS011;674;45.552;-122.600;2023-07-13T06:51:05;3.93;;;1.60;;
1360;SDS011;674;45.552;-122.600;2023-07-13T06:53:35;2.40;;;1.90;;
1360;SDS011;674;45.552;-122.600;2023-07-13T06:56:03;2.10;;;1.73;;
1360;SDS011;674;45.552;-122.600;2023-07-13T06:58:33;1.70;;;1.60;;
1360;SDS011;674;45.552;-122.600;2023-07-13T07:01:02;2.73;;;2.03;;
1360;SDS011;674;45.552;-122.600;2023-07-13T07:03:34;3.97;;;2.00;;
1360;SDS011;674;45.552;-122.600;2023-07-13T07:06:12;4.20;;;2.20;;
1360;SDS011;674;45.552;-122.600;2023-07-13T07:08:46;1.77;;;1.40;;
1360;SDS011;674;45.552;-122.600;2023-07-13T07:11:17;2.70;;;2.10;;
1360;SDS011;674;45.552;-122.600;2023-07-13T07:13:50;2.03;;;1.70;;
1360;SDS011;674;45.552;-122.600;2023-07-13T07:16:20;3.83;;;1.63;;
1360;SDS011;674;45.552;-122.600;2023-07-13T07:18:49;3.20;;;2.03;;
1360;SDS011;674;45.552;-122.600;2023-07-13T07:21:19;1.93;;;1.73;;
1360;SDS011;674;45.552;-122.600;2023-07-13T07:24:00;3.07;;;1.80;;
1360;SDS011;674;45.552;-122.600;2023-07-13T07:26:31;2.40;;;1.70;;
1360;SDS011;674;45.552;-122.600;2023-07-13T07:29:19;1.73;;;1.63;;
1360;SDS011;674;45.552;-122.600;2023-07-13T07:31:50;2.10;;;1.87;;
1360;SDS011;674;45.552;-122.600;2023-07-13T07:34:22;2.50;;;2.07;;
1360;SDS011;674;45.552;-122.600;2023-07-13T07:36:52;2.00;;;1.90;;
1360;SDS011;674;45.552;-122.600;2023-07-13T07:39:24;1.90;;;1.70;;
1360;SDS011;674;45.552;-122.600;2023-07-13T07:41:52;1.90;;;1.70;;
1360;SDS011;674;45.552;-122.600;2023-07-13T07:44:23;2.57;;;1.80;;
1360;SDS011;674;45.552;-122.600;2023-07-13T07:46:52;1.90;;;1.70;;
1360;SDS011;674;45.552;-122.600;2023-07-13T07:49:21;2.20;;;2.00;;
1360;SDS011;674;45.552;-122.600;2023-07-13T07:51:49;2.10;;;1.90;;
1360;SDS011;674;45.552;-122.600;2023-07-13T07:54:18;2.67;;;2.47;;
1360;SDS011;674;45.552;-122.600;2023-07-13T07:57:07;2.37;;;1.90;;
1360;SDS011;674;45.552;-122.600;2023-07-13T07:59:38;2.77;;;2.47;;
1360;SDS011;674;45.552;-122.600;2023-07-13T08:02:09;2.13;;;1.93;;
1360;SDS011;674;45.552;-122.600;2023-07-13T08:04:59;2.30;;;2.10;;
1360;SDS011;674;45.552;-122.600;2023-07-13T08:07:30;2.40;;;2.17;;
1360;SDS011;674;45.552;-122.600;2023-07-13T08:09:59;2.27;;;2.07;;
1360;SDS011;674;45.552;-122.600;2023-07-13T08:12:28;1.77;;;1.67;;
1360;SDS011;674;45.552;-122.600;2023-07-13T08:14:59;2.30;;;1.87;;
1360;SDS011;674;45.552;-122.600;2023-07-13T08:17:28;2.80;;;2.47;;
1360;SDS011;674;45.552;-122.600;2023-07-13T08:19:57;2.50;;;2.30;;
1360;SDS011;674;45.552;-122.600;2023-07-13T08:22:26;2.50;;;2.13;;
1360;SDS011;674;45.552;-122.600;2023-07-13T08:24:55;2.57;;;2.20;;
1360;SDS011;674;45.552;-122.600;2023-07-13T08:27:24;2.03;;;1.83;;
1360;SDS011;674;45.552;-122.600;2023-07-13T08:29:55;2.30;;;2.10;;
1360;SDS011;674;45.552;-122.600;2023-07-13T08:32:23;2.30;;;2.10;;
1360;SDS011;674;45.552;-122.600;2023-07-13T08:34:52;4.30;;;1.90;;
1360;SDS011;674;45.552;-122.600;2023-07-13T08:37:21;2.10;;;1.63;;
1360;SDS011;674;45.552;-122.600;2023-07-13T08:39:49;3.00;;;2.20;;
1360;SDS011;674;45.552;-122.600;2023-07-13T08:42:31;2.60;;;2.03;;
1360;SDS011;674;45.552;-122.600;2023-07-13T08:50:41;2.10;;;1.80;;
1360;SDS011;674;45.552;-122.600;2023-07-13T08:53:44;2.93;;;1.93;;
1360;SDS011;674;45.552;-122.600;2023-07-13T08:56:17;2.77;;;2.17;;
1360;SDS011;674;45.552;-122.600;2023-07-13T08:58:49;2.43;;;2.00;;
1360;SDS011;674;45.552;-122.600;2023-07-13T09:04:30;2.17;;;1.80;;
1360;SDS011;674;45.552;-122.600;2023-07-13T09:07:18;2.20;;;2.00;;
1360;SDS011;674;45.552;-122.600;2023-07-13T09:10:36;2.53;;;2.10;;
1360;SDS011;674;45.552;-122.600;2023-07-13T09:13:10;3.07;;;2.03;;
1360;SDS011;674;45.552;-122.600;2023-07-13T09:15:55;3.37;;;2.20;;
1360;SDS011;674;45.552;-122.600;2023-07-13T09:18:33;2.40;;;2.10;;
1360;SDS011;674;45.552;-122.600;2023-07-13T09:21:13;3.00;;;1.97;;
1360;SDS011;674;45.552;-122.600;2023-07-13T09:23:45;3.03;;;2.33;;
1360;SDS011;674;45.552;-122.600;2023-07-13T09:26:20;1.80;;;1.60;;
1360;SDS011;674;45.552;-122.600;2023-07-13T09:28:52;2.40;;;1.97;;
1360;SDS011;674;45.552;-122.600;2023-07-13T09:31:37;3.13;;;2.07;;
1360;SDS011;674;45.552;-122.600;2023-07-13T09:34:10;2.90;;;1.87;;
1360;SDS011;674;45.552;-122.600;2023-07-13T09:36:39;2.30;;;1.93;;
1360;SDS011;674;45.552;-122.600;2023-07-13T09:41:47;2.57;;;1.70;;
1360;SDS011;674;45.552;-122.600;2023-07-13T09:44:37;2.10;;;1.80;;
1360;SDS011;674;45.552;-122.600;2023-07-13T09:47:24;2.53;;;2.30;;
1360;SDS011;674;45.552;-122.600;2023-07-13T09:50:04;2.20;;;2.00;;
1360;SDS011;674;45.552;-122.600;2023-07-13T09:52:44;2.80;;;2.10;;
1360;SDS011;674;45.552;-122.600;2023-07-13T09:58:09;4.10;;;1.90;;
1360;SDS011;674;45.552;-122.600;2023-07-13T10:00:39;2.83;;;2.47;;
1360;SDS011;674;45.552;-122.600;2023-07-13T10:03:19;1.97;;;1.80;;
1360;SDS011;674;45.552;-122.600;2023-07-13T10:05:50;3.60;;;2.80;;
1360;SDS011;674;45.552;-122.600;2023-07-13T10:08:29;2.33;;;2.13;;
1360;SDS011;674;45.552;-122.600;2023-07-13T10:11:00;2.10;;;1.87;;
1360;SDS011;674;45.552;-122.600;2023-07-13T10:13:40;2.10;;;1.90;;
1360;SDS011;674;45.552;-122.600;2023-07-13T10:16:24;1.93;;;1.80;;
1360;SDS011;674;45.552;-122.600;2023-07-13T10:19:05;3.10;;;2.03;;
1360;SDS011;674;45.552;-122.600;2023-07-13T10:21:52;2.03;;;1.83;;
1360;SDS011;674;45.552;-122.600;2023-07-13T10:24:26;2.40;;;1.87;;
1360;SDS011;674;45.552;-122.600;2023-07-13T10:29:48;2.70;;;2.00;;
1360;SDS011;674;45.552;-122.600;2023-07-13T10:32:21;2.37;;;2.00;;
1360;SDS011;674;45.552;-122.600;2023-07-13T10:34:52;2.40;;;1.90;;
1360;SDS011;674;45.552;-122.600;2023-07-13T10:37:23;2.00;;;1.70;;
1360;SDS011;674;45.552;-122.600;2023-07-13T10:39:55;2.00;;;1.57;;
1360;SDS011;674;45.552;-122.600;2023-07-13T10:42:27;2.07;;;1.70;;
1360;SDS011;674;45.552;-122.600;2023-07-13T10:45:11;2.40;;;1.87;;
1360;SDS011;674;45.552;-122.600;2023-07-13T10:47:45;2.03;;;1.77;;
1360;SDS011;674;45.552;-122.600;2023-07-13T10:50:17;2.63;;;2.13;;
1360;SDS011;674;45.552;-122.600;2023-07-13T10:52:52;3.90;;;1.97;;
1360;SDS011;674;45.552;-122.600;2023-07-13T10:55:32;2.47;;;2.20;;
1360;SDS011;674;45.552;-122.600;2023-07-13T11:01:12;2.40;;;1.70;;
1360;SDS011;674;45.552;-122.600;2023-07-13T11:06:37;2.27;;;1.60;;
1360;SDS011;674;45.552;-122.600;2023-07-13T11:17:36;2.43;;;2.00;;
1360;SDS011;674;45.552;-122.600;2023-07-13T11:22:50;3.17;;;2.17;;
1360;SDS011;674;45.552;-122.600;2023-07-13T11:25:45;2.60;;;2.33;;
1360;SDS011;674;45.552;-122.600;2023-07-13T11:28:21;4.93;;;3.10;;
1360;SDS011;674;45.552;-122.600;2023-07-13T11:33:45;3.67;;;3.20;;
1360;SDS011;674;45.552;-122.600;2023-07-13T11:36:17;3.50;;;2.90;;
1360;SDS011;674;45.552;-122.600;2023-07-13T11:39:35;4.10;;;3.33;;
1360;SDS011;674;45.552;-122.600;2023-07-13T11:41:52;4.20;;;3.53;;
1360;SDS011;674;45.552;-122.600;2023-07-13T11:44:25;5.40;;;3.80;;
1360;SDS011;674;45.552;-122.600;2023-07-13T11:46:58;5.10;;;3.90;;
1360;SDS011;674;45.552;-122.600;2023-07-13T11:49:31;4.93;;;3.60;;
1360;SDS011;674;45.552;-122.600;2023-07-13T11:52:09;5.37;;;3.87;;
1360;SDS011;674;45.552;-122.600;2023-07-13T11:57:27;5.83;;;3.13;;
1360;SDS011;674;45.552;-122.600;2023-07-13T12:00:02;2.83;;;2.53;;
1360;SDS011;674;45.552;-122.600;2023-07-13T12:02:40;3.60;;;3.03;;
1360;SDS011;674;45.552;-122.600;2023-07-13T12:05:13;3.63;;;3.00;;
1360;SDS011;674;45.552;-122.600;2023-07-13T12:07:45;3.10;;;2.67;;
1360;SDS011;674;45.552;-122.600;2023-07-13T12:10:17;3.80;;;3.30;;
1360;SDS011;674;45.552;-122.600;2023-07-13T12:15:23;3.80;;;2.50;;
1360;SDS011;674;45.552;-122.600;2023-07-13T12:17:58;4.07;;;2.50;;
1360;SDS011;674;45.552;-122.600;2023-07-13T12:20:27;3.43;;;2.60;;
1360;SDS011;674;45.552;-122.600;2023-07-13T12:23:04;3.00;;;2.33;;
1360;SDS011;674;45.552;-122.600;2023-07-13T12:25:38;2.93;;;2.20;;
1360;SDS011;674;45.552;-122.600;2023-07-13T12:28:23;2.50;;;2.20;;
1360;SDS011;674;45.552;-122.600;2023-07-13T12:31:05;2.87;;;2.00;;
1360;SDS011;674;45.552;-122.600;2023-07-13T12:33:35;1.90;;;1.70;;
1360;SDS011;674;45.552;-122.600;2023-07-13T12:36:08;3.07;;;2.10;;
1360;SDS011;674;45.552;-122.600;2023-07-13T12:38:40;5.30;;;2.00;;
1360;SDS011;674;45.552;-122.600;2023-07-13T12:41:09;2.80;;;2.43;;
1360;SDS011;674;45.552;-122.600;2023-07-13T12:43:37;3.47;;;2.00;;
1360;SDS011;674;45.552;-122.600;2023-07-13T12:46:16;2.87;;;1.80;;
1360;SDS011;674;45.552;-122.600;2023-07-13T12:48:48;3.13;;;2.00;;
1360;SDS011;674;45.552;-122.600;2023-07-13T12:51:38;1.90;;;1.70;;
1360;SDS011;674;45.552;-122.600;2023-07-13T12:54:13;2.20;;;2.00;;
1360;SDS011;674;45.552;-122.600;2023-07-13T12:56:45;3.60;;;2.63;;
1360;SDS011;674;45.552;-122.600;2023-07-13T12:59:20;2.33;;;2.13;;
1360;SDS011;674;45.552;-122.600;2023-07-13T13:01:50;1.97;;;1.77;;
1360;SDS011;674;45.552;-122.600;2023-07-13T13:04:18;4.07;;;2.10;;
1360;SDS011;674;45.552;-122.600;2023-07-13T13:06:49;2.67;;;2.10;;
1360;SDS011;674;45.552;-122.600;2023-07-13T13:09:28;2.10;;;1.87;;
1360;SDS011;674;45.552;-122.600;2023-07-13T13:11:57;2.80;;;1.87;;
1360;SDS011;674;45.552;-122.600;2023-07-13T13:14:26;2.63;;;2.03;;
1360;SDS011;674;45.552;-122.600;2023-07-13T13:16:54;2.30;;;2.10;;
1360;SDS011;674;45.552;-122.600;2023-07-13T13:19:25;3.33;;;2.40;;
1360;SDS011;674;45.552;-122.600;2023-07-13T13:21:55;3.30;;;2.20;;
1360;SDS011;674;45.552;-122.600;2023-07-13T13:24:26;2.90;;;1.90;;
1360;SDS011;674;45.552;-122.600;2023-07-13T13:26:56;2.40;;;2.00;;
1360;SDS011;674;45.552;-122.600;2023-07-13T13:29:25;3.93;;;3.00;;
1360;SDS011;674;45.552;-122.600;2023-07-13T13:31:54;2.40;;;2.03;;
1360;SDS011;674;45.552;-122.600;2023-07-13T13:34:24;2.60;;;2.37;;
1360;SDS011;674;45.552;-122.600;2023-07-13T13:36:53;3.30;;;2.00;;
1360;SDS011;674;45.552;-122.600;2023-07-13T13:42:02;3.57;;;2.40;;
1360;SDS011;674;45.552;-122.600;2023-07-13T13:44:31;2.63;;;2.27;;
1360;SDS011;674;45.552;-122.600;2023-07-13T13:47:00;3.50;;;2.23;;
1360;SDS011;674;45.552;-122.600;2023-07-13T13:49:29;3.40;;;2.60;;
1360;SDS011;674;45.552;-122.600;2023-07-13T13:51:58;2.60;;;2.40;;
1360;SDS011;674;45.552;-122.600;2023-07-13T13:54:27;2.50;;;2.30;;
1360;SDS011;674;45.552;-122.600;2023-07-13T13:56:55;3.13;;;2.10;;
1360;SDS011;674;45.552;-122.600;2023-07-13T13:59:26;2.93;;;2.53;;
1360;SDS011;674;45.552;-122.600;2023-07-13T14:01:55;3.13;;;2.63;;
1360;SDS011;674;45.552;-122.600;2023-07-13T14:04:28;2.60;;;2.37;;
1360;SDS011;674;45.552;-122.600;2023-07-13T14:06:56;4.13;;;2.33;;
1360;SDS011;674;45.552;-122.600;2023-07-13T14:09:25;2.93;;;2.67;;
1360;SDS011;674;45.552;-122.600;2023-07-13T14:11:53;3.10;;;2.60;;
1360;SDS011;674;45.552;-122.600;2023-07-13T14:14:23;3.70;;;2.70;;
1360;SDS011;674;45.552;-122.600;2023-07-13T14:16:54;3.13;;;2.83;;
1360;SDS011;674;45.552;-122.600;2023-07-13T14:19:24;4.50;;;2.60;;
1360;SDS011;674;45.552;-122.600;2023-07-13T14:21:52;3.40;;;2.70;;
1360;SDS011;674;45.552;-122.600;2023-07-13T14:24:21;3.07;;;2.60;;
1360;SDS011;674;45.552;-122.600;2023-07-13T14:26:49;3.40;;;2.63;;
1360;SDS011;674;45.552;-122.600;2023-07-13T14:29:18;3.37;;;3.07;;
1360;SDS011;674;45.552;-122.600;2023-07-13T14:31:50;2.90;;;2.60;;
1360;SDS011;674;45.552;-122.600;2023-07-13T14:34:19;3.03;;;2.30;;
1360;SDS011;674;45.552;-122.600;2023-07-13T14:36:49;2.80;;;2.60;;
1360;SDS011;674;45.552;-122.600;2023-07-13T14:39:19;3.33;;;2.23;;
1360;SDS011;674;45.552;-122.600;2023-07-13T14:41:50;3.80;;;2.83;;
1360;SDS011;674;45.552;-122.600;2023-07-13T14:44:21;4.27;;;2.93;;
1360;SDS011;674;45.552;-122.600;2023-07-13T14:46:59;3.10;;;2.80;;
1360;SDS011;674;45.552;-122.600;2023-07-13T14:49:35;4.87;;;3.07;;
1360;SDS011;674;45.552;-122.600;2023-07-13T14:52:18;4.97;;;3.00;;
1360;SDS011;674;45.552;-122.600;2023-07-13T14:54:52;3.50;;;2.27;;
1360;SDS011;674;45.552;-122.600;2023-07-13T14:57:21;3.60;;;2.80;;
1360;SDS011;674;45.552;-122.600;2023-07-13T14:59:49;3.60;;;2.83;;
1360;SDS011;674;45.552;-122.600;2023-07-13T15:02:33;3.90;;;2.90;;
1360;SDS011;674;45.552;-122.600;2023-07-13T15:05:11;2.37;;;2.17;;
1360;SDS011;674;45.552;-122.600;2023-07-13T15:07:45;2.73;;;2.50;;
1360;SDS011;674;45.552;-122.600;2023-07-13T15:10:16;3.07;;;2.73;;
1360;SDS011;674;45.552;-122.600;2023-07-13T15:12:51;3.17;;;2.83;;
1360;SDS011;674;45.552;-122.600;2023-07-13T15:15:20;3.20;;;2.90;;
1360;SDS011;674;45.552;-122.600;2023-07-13T15:17:49;3.53;;;2.90;;
1360;SDS011;674;45.552;-122.600;2023-07-13T15:22:53;3.97;;;2.40;;
1360;SDS011;674;45.552;-122.600;2023-07-13T15:25:23;3.60;;;2.80;;
1360;SDS011;674;45.552;-122.600;2023-07-13T15:27:55;3.00;;;2.60;;
1360;SDS011;674;45.552;-122.600;2023-07-13T15:30:25;4.37;;;2.53;;
1360;SDS011;674;45.552;-122.600;2023-07-13T15:33:05;3.53;;;2.27;;
1360;SDS011;674;45.552;-122.600;2023-07-13T15:35:47;3.40;;;1.90;;
1360;SDS011;674;45.552;-122.600;2023-07-13T15:38:20;2.73;;;2.23;;
1360;SDS011;674;45.552;-122.600;2023-07-13T15:40:57;2.60;;;2.40;;
1360;SDS011;674;45.552;-122.600;2023-07-13T15:43:26;2.33;;;2.10;;
1360;SDS011;674;45.552;-122.600;2023-07-13T15:45:59;2.73;;;2.43;;
1360;SDS011;674;45.552;-122.600;2023-07-13T15:48:28;2.80;;;2.50;;
1360;SDS011;674;45.552;-122.600;2023-07-13T15:51:02;3.63;;;2.43;;
1360;SDS011;674;45.552;-122.600;2023-07-13T15:53:32;4.70;;;2.70;;
1360;SDS011;674;45.552;-122.600;2023-07-13T15:56:11;4.00;;;2.70;;
1360;SDS011;674;45.552;-122.600;2023-07-13T15:58:50;2.37;;;2.17;;
1360;SDS011;674;45.552;-122.600;2023-07-13T16:01:19;2.43;;;2.00;;
1360;SDS011;674;45.552;-122.600;2023-07-13T16:03:48;7.50;;;5.97;;